Time;durP1;ratioP1;P1;durP2;ratioP2;P2;SDS_P1;SDS_P2;PMS_P1;PMS_P2;Temp;Humidity;BMP_temperature;BMP_pressure;BME280_temperature;BME280_humidity;BME280_pressure;Samples;Min_cycle;Max_cycle;Signal;HPM_P1;HPM_P2
2022/04/13 00:00:41;;;;;;;6.10;3.15;;;14.10;79.00;;;;;;4838036;29;20130;-86
2022/04/13 00:03:06;;;;;;;9.15;3.78;;;14.10;79.50;;;;;;4907270;29;20453;-86
2022/04/13 00:05:32;;;;;;;8.18;2.95;;;14.00;79.70;;;;;;4929237;29;20547;-88
2022/04/13 00:08:06;;;;;;;7.75;3.28;;;14.00;80.10;;;;;;4933614;29;20027;-88
2022/04/13 00:20:52;;;;;;;6.30;3.22;;;13.70;82.40;;;;;;5124096;22;20542;-86
2022/04/13 00:27:06;;;;;;;6.53;2.90;;;13.80;83.10;;;;;;4869103;29;20401;-86
2022/04/13 00:29:32;;;;;;;7.07;3.28;;;13.70;82.60;;;;;;4937392;28;20038;-86
2022/04/13 00:31:58;;;;;;;5.38;2.67;;;13.80;81.60;;;;;;4939717;29;20083;-85
2022/04/13 00:34:24;;;;;;;7.90;3.00;;;13.80;79.90;;;;;;4957190;28;20022;-85
2022/04/13 00:36:50;;;;;;;5.60;2.65;;;13.90;79.80;;;;;;4939604;29;20531;-86
2022/04/13 00:39:15;;;;;;;3.63;2.20;;;14.00;79.10;;;;;;4957248;28;20031;-86
2022/04/13 00:41:41;;;;;;;4.43;2.15;;;14.00;78.00;;;;;;4956718;28;20050;-84
2022/04/13 00:44:09;;;;;;;10.10;2.85;;;13.90;78.40;;;;;;4939577;29;20085;-85
2022/04/13 00:46:35;;;;;;;9.40;2.50;;;13.70;81.30;;;;;;4956502;29;20015;-86
2022/04/13 00:49:02;;;;;;;7.32;3.20;;;13.60;82.80;;;;;;4939328;29;20030;-86
2022/04/13 00:51:28;;;;;;;6.05;2.15;;;13.50;84.00;;;;;;4939520;29;20039;-85
2022/04/13 00:53:57;;;;;;;3.83;2.45;;;13.40;83.80;;;;;;4957099;28;20488;-86
2022/04/13 00:56:27;;;;;;;7.10;2.45;;;13.40;85.90;;;;;;4956115;29;20027;-87
2022/04/13 00:58:54;;;;;;;5.53;2.53;;;13.40;85.80;;;;;;4942999;29;20114;-87
2022/04/13 01:01:22;;;;;;;7.47;2.80;;;13.40;84.00;;;;;;4938779;29;20062;-88
2022/04/13 01:03:51;;;;;;;4.80;2.20;;;13.50;84.10;;;;;;4956553;29;20106;-88
2022/04/13 01:06:19;;;;;;;5.07;2.55;;;13.40;84.00;;;;;;4956512;29;20430;-87
2022/04/13 01:08:49;;;;;;;8.82;2.80;;;13.40;84.30;;;;;;4939995;29;20082;-86
2022/04/13 01:11:16;;;;;;;10.23;2.53;;;13.50;85.50;;;;;;4956320;28;20376;-86
2022/04/13 01:13:41;;;;;;;8.27;2.60;;;13.50;86.00;;;;;;4939430;29;20144;-85
2022/04/13 01:16:07;;;;;;;4.72;2.10;;;13.50;85.90;;;;;;4939257;29;20565;-86
2022/04/13 01:18:33;;;;;;;9.88;2.85;;;13.50;85.40;;;;;;4956356;29;20090;-86
2022/04/13 01:21:00;;;;;;;8.45;2.30;;;13.50;84.30;;;;;;4955106;28;20027;-87
2022/04/13 01:23:26;;;;;;;5.25;2.13;;;13.50;82.80;;;;;;4956457;29;20049;-87
2022/04/13 01:25:54;;;;;;;7.32;2.17;;;13.50;82.90;;;;;;4956022;29;20027;-86
2022/04/13 01:28:21;;;;;;;4.88;1.80;;;13.50;82.20;;;;;;4955883;29;20030;-87
2022/04/13 01:30:46;;;;;;;2.78;1.90;;;13.60;78.90;;;;;;4938401;29;20511;-86
2022/04/13 01:33:12;;;;;;;4.95;2.00;;;13.60;77.10;;;;;;4956137;29;20043;-86
2022/04/13 01:35:38;;;;;;;3.95;1.80;;;13.70;74.10;;;;;;4956296;29;20395;-86
2022/04/13 01:38:04;;;;;;;4.70;2.20;;;13.70;72.30;;;;;;4938541;29;20515;-87
2022/04/13 01:40:30;;;;;;;2.40;1.60;;;13.70;71.40;;;;;;4955729;29;20435;-87
2022/04/13 01:42:56;;;;;;;5.20;1.67;;;13.70;70.90;;;;;;4955792;29;20027;-86
2022/04/13 01:45:21;;;;;;;3.53;1.67;;;13.70;68.80;;;;;;4938551;29;20027;-88
2022/04/13 01:47:48;;;;;;;7.32;1.65;;;13.80;68.30;;;;;;4938478;29;20057;-87
2022/04/13 01:50:16;;;;;;;3.88;1.70;;;13.80;67.90;;;;;;4955694;29;20114;-87
2022/04/13 01:52:42;;;;;;;5.60;2.20;;;13.70;68.40;;;;;;4938517;29;20031;-87
2022/04/13 01:55:08;;;;;;;5.10;1.92;;;13.60;71.60;;;;;;4955616;29;20027;-87
2022/04/13 01:57:35;;;;;;;6.03;1.92;;;13.50;71.70;;;;;;4955665;28;20038;-85
2022/04/13 02:00:01;;;;;;;7.88;1.95;;;13.50;71.40;;;;;;4954007;28;20028;-85
2022/04/13 02:02:26;;;;;;;3.95;1.73;;;13.50;70.60;;;;;;4955560;28;20163;-87
2022/04/13 02:04:53;;;;;;;7.97;1.40;;;13.50;71.20;;;;;;4955554;28;20102;-87
2022/04/13 02:07:18;;;;;;;4.13;1.60;;;13.50;68.30;;;;;;4955543;28;20035;-86
2022/04/13 02:09:44;;;;;;;4.53;1.67;;;13.50;69.50;;;;;;4954498;29;20031;-87
2022/04/13 02:12:10;;;;;;;2.88;1.50;;;13.40;69.20;;;;;;4954037;28;20031;-87
2022/04/13 02:14:36;;;;;;;5.32;1.63;;;13.40;68.90;;;;;;4954552;28;20037;-88
2022/04/13 02:17:01;;;;;;;3.85;1.30;;;13.30;69.40;;;;;;4955609;28;20090;-88
2022/04/13 02:19:27;;;;;;;8.60;1.80;;;13.30;68.50;;;;;;4955349;28;20039;-88
2022/04/13 02:21:53;;;;;;;5.60;1.48;;;13.30;67.50;;;;;;4953592;28;20480;-87
2022/04/13 02:24:18;;;;;;;5.57;1.63;;;13.30;68.60;;;;;;4955906;28;20033;-88
2022/04/13 02:26:44;;;;;;;3.88;1.63;;;13.20;67.90;;;;;;4955339;28;20031;-87
2022/04/13 02:29:09;;;;;;;5.80;1.77;;;13.20;67.90;;;;;;4955261;28;20023;-86
2022/04/13 02:31:35;;;;;;;9.13;1.38;;;13.10;67.90;;;;;;4954829;28;20031;-88
2022/04/13 02:34:04;;;;;;;3.42;1.55;;;13.00;68.50;;;;;;4955388;28;20029;-84
2022/04/13 02:36:30;;;;;;;4.88;1.52;;;12.90;69.70;;;;;;4954897;28;20062;-86
2022/04/13 02:38:55;;;;;;;6.05;1.88;;;12.90;69.50;;;;;;4953636;28;20058;-87
2022/04/13 02:41:21;;;;;;;6.20;1.70;;;13.00;69.40;;;;;;4954962;28;20488;-86
2022/04/13 02:43:47;;;;;;;4.88;1.80;;;13.00;70.00;;;;;;4954855;28;20031;-88
2022/04/13 02:46:12;;;;;;;5.07;1.88;;;12.90;69.90;;;;;;4953380;29;20023;-88
2022/04/13 02:48:38;;;;;;;4.95;1.52;;;12.90;72.10;;;;;;4955298;28;20038;-87
2022/04/13 02:51:04;;;;;;;3.25;1.30;;;12.90;69.30;;;;;;4954751;28;20388;-87
2022/04/13 02:53:30;;;;;;;3.28;1.48;;;12.80;70.40;;;;;;4955465;28;20114;-88
2022/04/13 02:55:56;;;;;;;3.97;1.70;;;12.60;71.10;;;;;;4941320;29;20031;-88
2022/04/13 02:58:21;;;;;;;3.30;1.55;;;12.50;73.40;;;;;;4937430;29;20402;-87
2022/04/13 03:00:47;;;;;;;4.45;1.65;;;12.30;74.60;;;;;;4937195;29;20110;-86
2022/04/13 03:03:13;;;;;;;6.55;1.88;;;12.20;76.90;;;;;;4937898;29;20506;-86
2022/04/13 03:05:39;;;;;;;5.78;1.77;;;12.10;78.30;;;;;;4954737;29;20058;-87
2022/04/13 03:08:06;;;;;;;9.30;1.48;;;12.10;80.60;;;;;;4954453;29;20046;-88
2022/04/13 03:10:32;;;;;;;8.32;1.75;;;11.90;80.40;;;;;;4954178;29;20030;-86
2022/04/13 03:12:57;;;;;;;3.10;1.25;;;11.90;80.10;;;;;;4937292;29;20027;-89
2022/04/13 03:15:23;;;;;;;5.30;1.50;;;11.90;78.90;;;;;;4954963;29;20122;-89
2022/04/13 03:17:52;;;;;;;2.22;1.17;;;12.00;76.10;;;;;;4954368;29;20030;-88
2022/04/13 03:20:18;;;;;;;4.38;1.50;;;12.10;74.70;;;;;;4953902;28;20388;-89
2022/04/13 03:22:44;;;;;;;4.30;1.67;;;12.10;77.10;;;;;;4952583;28;20035;-89
2022/04/13 03:25:09;;;;;;;7.15;2.08;;;12.00;78.90;;;;;;4952956;28;20027;-87
2022/04/13 03:27:37;;;;;;;9.82;1.80;;;11.90;79.10;;;;;;4953584;28;20178;-88
2022/04/13 03:30:04;;;;;;;6.75;2.00;;;11.90;80.90;;;;;;4953690;28;20420;-88
2022/04/13 03:32:36;;;;;;;4.82;1.80;;;11.90;82.90;;;;;;4954403;28;20027;-89
2022/04/13 03:35:02;;;;;;;4.25;1.55;;;11.80;82.20;;;;;;4954652;28;20034;-88
2022/04/13 03:37:28;;;;;;;4.97;1.88;;;11.80;81.80;;;;;;4954332;28;20027;-88
2022/04/13 03:39:53;;;;;;;3.20;1.33;;;11.80;81.20;;;;;;4955019;28;20032;-88
2022/04/13 03:42:19;;;;;;;6.32;1.83;;;11.80;81.90;;;;;;4953191;28;20527;-88
2022/04/13 03:44:44;;;;;;;9.63;1.95;;;11.80;85.80;;;;;;4957857;28;20035;-88
2022/04/13 03:47:10;;;;;;;4.03;2.03;;;11.70;86.90;;;;;;4995104;23;20045;-89
2022/04/13 03:49:36;;;;;;;6.07;1.80;;;11.70;85.70;;;;;;4977070;28;20031;-89
2022/04/13 03:52:01;;;;;;;4.30;1.80;;;11.70;82.70;;;;;;4969089;28;20593;-89
2022/04/13 03:54:27;;;;;;;4.35;1.67;;;11.70;82.60;;;;;;4977432;28;20026;-89
2022/04/13 03:56:53;;;;;;;3.20;1.50;;;11.70;84.70;;;;;;4962021;28;20054;-90
2022/04/13 03:59:20;;;;;;;5.45;1.50;;;11.70;84.00;;;;;;4977437;28;20047;-90
2022/04/13 04:01:46;;;;;;;4.95;2.17;;;11.70;84.50;;;;;;4977589;28;20046;-91
2022/04/13 04:04:12;;;;;;;7.72;2.35;;;11.70;83.80;;;;;;4976922;28;20031;-88
2022/04/13 04:06:38;;;;;;;4.10;1.77;;;11.70;83.70;;;;;;4976854;28;20093;-90
2022/04/13 04:09:04;;;;;;;5.85;1.50;;;11.70;84.20;;;;;;4976963;28;20419;-89
2022/04/13 04:11:29;;;;;;;3.25;1.52;;;11.70;81.90;;;;;;4977108;28;20029;-90
2022/04/13 04:13:55;;;;;;;3.28;1.52;;;11.70;82.60;;;;;;4977457;28;20395;-89
2022/04/13 04:16:21;;;;;;;5.93;1.60;;;11.70;82.90;;;;;;4975744;28;20026;-88
2022/04/13 04:18:48;;;;;;;6.47;1.23;;;11.60;82.90;;;;;;4977429;28;20035;-89
2022/04/13 04:21:15;;;;;;;3.10;1.65;;;11.50;83.10;;;;;;4963566;28;20027;-90
2022/04/13 04:23:41;;;;;;;3.83;1.50;;;11.50;85.60;;;;;;4977217;28;20201;-90
2022/04/13 04:26:07;;;;;;;11.00;1.67;;;11.50;83.70;;;;;;4975703;28;20468;-90
2022/04/13 04:28:33;;;;;;;5.47;1.50;;;11.50;85.10;;;;;;4977315;28;20023;-89
2022/04/13 04:30:59;;;;;;;2.90;1.50;;;11.50;85.60;;;;;;4975972;28;20026;-89
2022/04/13 04:33:26;;;;;;;4.10;1.35;;;11.50;87.90;;;;;;4977466;28;20049;-90
2022/04/13 04:35:51;;;;;;;2.78;1.75;;;11.40;86.60;;;;;;4975242;28;20037;-91
2022/04/13 04:38:18;;;;;;;8.60;1.60;;;11.50;86.20;;;;;;4976059;28;20027;-92
2022/04/13 04:40:44;;;;;;;6.28;1.73;;;11.70;80.70;;;;;;4974921;28;20037;-90
2022/04/13 04:43:09;;;;;;;6.70;1.58;;;11.80;81.80;;;;;;4976700;28;20394;-90
2022/04/13 04:45:36;;;;;;;4.75;1.42;;;11.80;80.50;;;;;;4975363;28;20495;-89
2022/04/13 04:48:04;;;;;;;3.50;1.40;;;11.80;81.70;;;;;;4975057;28;20031;-90
2022/04/13 04:50:30;;;;;;;3.83;1.77;;;11.70;83.40;;;;;;4974874;28;20110;-90
2022/04/13 04:52:56;;;;;;;6.72;2.72;;;11.50;85.20;;;;;;4974950;28;20053;-89
2022/04/13 04:55:23;;;;;;;6.05;2.72;;;11.40;84.20;;;;;;4975068;28;20031;-89
2022/04/13 04:57:49;;;;;;;8.32;2.17;;;11.40;84.40;;;;;;4976188;28;20034;-89
2022/04/13 05:00:20;;;;;;;5.90;2.05;;;11.50;85.60;;;;;;4976414;28;20078;-89
2022/04/13 05:02:53;;;;;;;4.38;1.70;;;11.60;84.00;;;;;;4976802;28;20426;-88
2022/04/13 05:05:20;;;;;;;6.32;2.25;;;11.50;84.40;;;;;;4976606;28;20422;-90
2022/04/13 05:07:46;;;;;;;4.40;2.15;;;11.60;83.50;;;;;;4975075;28;20036;-89
2022/04/13 05:10:12;;;;;;;9.68;2.10;;;11.70;82.00;;;;;;4975074;28;20034;-89
2022/04/13 05:12:46;;;;;;;4.57;1.80;;;11.80;80.70;;;;;;4977256;28;20106;-88
2022/04/13 05:15:13;;;;;;;3.28;1.88;;;11.90;77.80;;;;;;4975786;28;20121;-90
2022/04/13 05:17:40;;;;;;;3.80;2.58;;;11.90;79.30;;;;;;4975423;28;20474;-89
2022/04/13 05:20:07;;;;;;;5.93;1.65;;;11.90;80.90;;;;;;4975126;28;20019;-90
2022/04/13 05:22:33;;;;;;;6.10;2.60;;;11.80;82.30;;;;;;4975657;28;20030;-89
2022/04/13 05:25:08;;;;;;;5.30;1.90;;;11.70;86.10;;;;;;4976305;28;20047;-87
2022/04/13 05:27:34;;;;;;;7.80;2.10;;;11.70;88.10;;;;;;4977440;28;20042;-88
2022/04/13 05:30:00;;;;;;;7.53;1.88;;;11.80;84.60;;;;;;4976932;28;20019;-88
2022/04/13 05:32:25;;;;;;;9.07;2.40;;;11.90;86.20;;;;;;4974633;28;20106;-88
2022/04/13 05:34:57;;;;;;;6.25;2.50;;;11.80;87.20;;;;;;4974600;28;20027;-89
2022/04/13 05:37:23;;;;;;;9.82;2.35;;;11.70;89.40;;;;;;4974281;28;20027;-90
2022/04/13 05:39:49;;;;;;;4.80;1.88;;;11.60;87.50;;;;;;4975695;28;20038;-90
2022/04/13 05:42:14;;;;;;;4.78;1.70;;;11.70;87.30;;;;;;4975534;28;20034;-89
2022/04/13 05:44:40;;;;;;;3.75;2.00;;;11.80;86.40;;;;;;4975529;28;20037;-90
2022/04/13 05:47:06;;;;;;;11.70;2.25;;;11.90;85.30;;;;;;4974051;28;20038;-89
2022/04/13 05:49:31;;;;;;;3.50;2.17;;;11.80;84.10;;;;;;4975420;28;20023;-88
2022/04/13 05:51:57;;;;;;;12.38;2.55;;;11.90;83.60;;;;;;4974500;28;20070;-89
2022/04/13 05:54:23;;;;;;;10.25;2.08;;;12.00;84.80;;;;;;4975363;28;20074;-92
2022/04/13 05:56:48;;;;;;;7.93;2.08;;;12.10;85.20;;;;;;4958389;28;20038;-90
2022/04/13 05:59:14;;;;;;;5.75;2.67;;;12.10;86.60;;;;;;4957862;28;20407;-88
2022/04/13 06:01:40;;;;;;;6.15;1.95;;;12.20;86.90;;;;;;4957533;28;20105;-90
2022/04/13 06:04:05;;;;;;;7.68;2.13;;;12.20;83.10;;;;;;4974064;28;20033;-89
2022/04/13 06:06:31;;;;;;;4.38;2.30;;;12.20;81.00;;;;;;4963496;28;20411;-89
2022/04/13 06:09:05;;;;;;;6.22;2.50;;;12.30;81.90;;;;;;4974353;28;20033;-89
2022/04/13 06:11:31;;;;;;;8.00;2.03;;;12.50;80.30;;;;;;4974392;28;20063;-88
2022/04/13 06:13:59;;;;;;;5.13;1.92;;;12.50;78.90;;;;;;4974687;28;20023;-89
2022/04/13 06:16:24;;;;;;;3.63;2.10;;;12.60;80.90;;;;;;4973754;28;20102;-87
2022/04/13 06:18:52;;;;;;;7.88;2.35;;;12.70;80.40;;;;;;4957077;28;20027;-88
2022/04/13 06:21:21;;;;;;;3.40;1.67;;;12.80;80.10;;;;;;4973884;28;20041;-89
2022/04/13 06:23:47;;;;;;;4.63;1.92;;;12.90;76.10;;;;;;4963086;28;20042;-89
2022/04/13 06:26:13;;;;;;;6.60;2.33;;;13.00;76.60;;;;;;4967547;28;20481;-88
2022/04/13 06:28:38;;;;;;;7.15;1.58;;;13.10;74.50;;;;;;4975811;28;20106;-88
2022/04/13 06:31:04;;;;;;;3.60;1.40;;;13.20;72.80;;;;;;4964906;28;20487;-88
2022/04/13 06:33:35;;;;;;;6.78;1.38;;;13.30;69.60;;;;;;4963837;28;20117;-89
2022/04/13 06:36:05;;;;;;;;;;;13.40;70.00;;;;;;4974847;28;20089;-89
2022/04/13 06:38:34;;;;;;;8.35;1.55;;;13.50;68.80;;;;;;4956104;28;19902;-89
2022/04/13 06:41:00;;;;;;;5.60;1.98;;;13.50;69.70;;;;;;4974393;28;20045;-89
2022/04/13 06:43:26;;;;;;;4.88;1.70;;;13.50;72.80;;;;;;4956866;28;20035;-89
2022/04/13 06:45:55;;;;;;;5.18;1.50;;;13.50;74.40;;;;;;4956622;28;20086;-89
2022/04/13 06:48:23;;;;;;;4.85;1.60;;;13.70;71.00;;;;;;4956181;28;20048;-89
2022/04/13 06:50:49;;;;;;;5.07;1.73;;;13.80;68.70;;;;;;4956623;28;20037;-89
2022/04/13 06:53:15;;;;;;;8.30;1.63;;;14.00;66.00;;;;;;4974241;28;20114;-87
2022/04/13 06:55:47;;;;;;;6.90;1.75;;;14.20;64.60;;;;;;4973110;28;20031;-89
2022/04/13 06:58:17;;;;;;;4.28;1.85;;;14.20;64.00;;;;;;4956807;28;20085;-88
2022/04/13 07:00:50;;;;;;;6.00;1.85;;;14.40;62.60;;;;;;4956121;28;20478;-88
2022/04/13 07:03:16;;;;;;;4.13;1.38;;;14.60;59.90;;;;;;4956753;28;20031;-88
2022/04/13 07:05:45;;;;;;;2.05;1.13;;;14.60;58.90;;;;;;4973954;28;20019;-88
2022/04/13 07:08:10;;;;;;;4.05;1.30;;;14.60;57.70;;;;;;4973426;28;20027;-89
2022/04/13 07:10:36;;;;;;;5.85;2.08;;;14.70;59.90;;;;;;4956264;28;20030;-89
2022/04/13 07:13:02;;;;;;;10.23;1.58;;;14.80;58.50;;;;;;4966376;28;20593;-88
2022/04/13 07:15:30;;;;;;;4.75;1.40;;;15.00;57.90;;;;;;4974024;28;20118;-89
2022/04/13 07:17:57;;;;;;;6.43;1.65;;;15.10;58.60;;;;;;4972897;28;20133;-89
2022/04/13 07:20:22;;;;;;;5.68;1.23;;;15.30;57.40;;;;;;4956035;28;20031;-89
2022/04/13 07:22:53;;;;;;;5.68;1.58;;;15.20;57.40;;;;;;4956216;28;20506;-89
2022/04/13 07:25:23;;;;;;;5.82;1.45;;;15.40;57.90;;;;;;4973946;28;20030;-88
2022/04/13 07:27:49;;;;;;;4.60;1.42;;;15.50;57.10;;;;;;4973198;28;20039;-89
2022/04/13 07:30:19;;;;;;;4.57;1.55;;;15.60;56.70;;;;;;4955770;28;20026;-88
2022/04/13 07:33:01;;;;;;;4.60;1.40;;;15.70;55.80;;;;;;4956098;28;20030;-88
2022/04/13 07:35:29;;;;;;;3.40;1.27;;;15.80;56.60;;;;;;4956421;28;20050;-88
2022/04/13 07:37:57;;;;;;;6.45;1.40;;;15.90;56.30;;;;;;4956271;28;20081;-89
2022/04/13 07:40:23;;;;;;;5.13;1.42;;;15.90;54.30;;;;;;4972545;28;20035;-89
2022/04/13 07:42:49;;;;;;;3.17;1.45;;;16.00;55.40;;;;;;4973201;28;20027;-89
2022/04/13 07:45:15;;;;;;;3.28;1.30;;;16.10;53.90;;;;;;4973196;28;20114;-88
2022/04/13 07:47:44;;;;;;;3.28;1.20;;;16.20;53.70;;;;;;4973074;28;20031;-88
2022/04/13 07:50:13;;;;;;;9.93;2.00;;;16.10;52.60;;;;;;4955571;28;20029;-87
2022/04/13 07:52:40;;;;;;;8.63;1.63;;;16.10;53.50;;;;;;4973637;28;20023;-89
2022/04/13 07:55:09;;;;;;;7.38;1.70;;;16.10;53.30;;;;;;4957841;28;20015;-88
2022/04/13 07:57:38;;;;;;;2.90;1.30;;;16.30;53.40;;;;;;4974803;28;20402;-89
2022/04/13 08:00:06;;;;;;;5.05;1.70;;;16.30;53.70;;;;;;4992726;28;20027;-89
2022/04/13 08:02:34;;;;;;;5.28;1.63;;;16.40;54.10;;;;;;4973105;28;20023;-89
2022/04/13 08:05:00;;;;;;;6.47;1.23;;;16.50;52.50;;;;;;4972245;28;20046;-90
2022/04/13 08:07:26;;;;;;;5.28;1.27;;;16.60;53.80;;;;;;4971706;28;20030;-88
2022/04/13 08:09:52;;;;;;;7.80;1.75;;;16.40;54.10;;;;;;4972336;28;20542;-88
2022/04/13 08:12:17;;;;;;;4.22;1.35;;;16.30;54.20;;;;;;4968298;28;20042;-88
2022/04/13 08:14:47;;;;;;;8.80;1.67;;;16.20;54.90;;;;;;4955472;28;20022;-86
2022/04/13 08:17:13;;;;;;;2.20;1.17;;;16.40;55.30;;;;;;4955675;28;20057;-87
2022/04/13 08:19:57;;;;;;;3.40;1.27;;;16.40;53.40;;;;;;4971935;28;20489;-88
2022/04/13 08:22:24;;;;;;;5.47;1.60;;;16.40;53.20;;;;;;4972984;28;20031;-90
2022/04/13 08:24:50;;;;;;;5.95;1.02;;;16.40;53.20;;;;;;4972995;28;20498;-89
2022/04/13 08:27:16;;;;;;;2.53;1.13;;;16.40;53.50;;;;;;4955618;28;20027;-89
2022/04/13 08:29:45;;;;;;;2.83;1.30;;;16.40;53.40;;;;;;4957569;28;20029;-90
2022/04/13 08:32:11;;;;;;;3.30;1.20;;;16.40;53.00;;;;;;4958899;28;20089;-88
2022/04/13 08:34:36;;;;;;;5.32;1.40;;;16.30;53.70;;;;;;4959444;28;20037;-88
2022/04/13 08:37:02;;;;;;;7.13;1.48;;;16.30;54.10;;;;;;4976597;28;20030;-88
2022/04/13 08:39:28;;;;;;;7.65;1.65;;;16.30;54.10;;;;;;4959554;28;20085;-89
2022/04/13 08:42:01;;;;;;;4.00;1.25;;;16.20;54.70;;;;;;4976789;28;20459;-89
2022/04/13 08:44:52;;;;;;;8.68;1.52;;;16.30;54.90;;;;;;4958897;28;20049;-89
2022/04/13 08:47:23;;;;;;;3.70;1.40;;;16.40;55.30;;;;;;4976043;28;20039;-89
2022/04/13 08:49:55;;;;;;;4.88;1.83;;;16.30;55.00;;;;;;4958971;28;20037;-89
2022/04/13 08:52:39;;;;;;;6.53;1.73;;;16.30;55.20;;;;;;4958291;28;20554;-88
2022/04/13 08:55:07;;;;;;;6.03;1.65;;;16.50;55.40;;;;;;4956996;29;20130;-89
2022/04/13 08:57:38;;;;;;;5.03;1.60;;;16.60;55.30;;;;;;4939316;28;20039;-89
2022/04/13 09:00:16;;;;;;;12.80;1.60;;;16.70;54.60;;;;;;4939514;29;20090;-88
2022/04/13 09:02:47;;;;;;;5.60;1.27;;;16.70;53.70;;;;;;4957728;29;20667;-88
2022/04/13 09:05:23;;;;;;;6.72;1.50;;;16.60;53.80;;;;;;4956832;28;20035;-88
2022/04/13 09:08:12;;;;;;;4.50;1.42;;;16.70;53.70;;;;;;4956853;28;20035;-88
2022/04/13 09:10:39;;;;;;;6.18;1.48;;;16.80;53.30;;;;;;4956395;28;20809;-88
2022/04/13 09:13:12;;;;;;;6.45;2.50;;;16.90;53.60;;;;;;4969799;28;20027;-88
2022/04/13 09:15:39;;;;;;;3.88;1.20;;;17.10;53.50;;;;;;4974820;28;20495;-89
2022/04/13 09:18:08;;;;;;;3.30;1.15;;;17.10;53.40;;;;;;4958244;28;20407;-89
2022/04/13 09:20:37;;;;;;;3.55;1.85;;;17.30;52.30;;;;;;4975307;28;20026;-90
2022/04/13 09:23:04;;;;;;;9.88;2.15;;;17.30;52.70;;;;;;4975844;28;20113;-89
2022/04/13 09:25:36;;;;;;;4.10;1.30;;;17.30;52.30;;;;;;4975816;28;20479;-89
2022/04/13 09:28:06;;;;;;;5.28;1.80;;;17.30;52.30;;;;;;4974776;28;20042;-89
2022/04/13 09:30:36;;;;;;;5.53;1.73;;;17.30;52.30;;;;;;4975612;28;20023;-89
2022/04/13 09:33:03;;;;;;;8.35;1.85;;;17.40;52.10;;;;;;4957682;28;20034;-90
2022/04/13 09:35:33;;;;;;;6.32;1.50;;;17.60;52.30;;;;;;4975481;28;20046;-90
2022/04/13 09:38:07;;;;;;;6.32;1.70;;;17.70;51.30;;;;;;4975395;28;20105;-90
2022/04/13 09:40:41;;;;;;;5.82;1.85;;;17.70;51.70;;;;;;4974076;28;20412;-88
2022/04/13 09:43:20;;;;;;;7.75;2.25;;;18.00;51.70;;;;;;4957891;28;20030;-89
2022/04/13 09:45:52;;;;;;;5.25;1.80;;;18.50;50.60;;;;;;4958124;28;20026;-89
2022/04/13 09:48:20;;;;;;;7.60;1.88;;;18.80;50.20;;;;;;5002793;22;20499;-89
2022/04/13 09:50:48;;;;;;;7.13;1.40;;;19.20;50.80;;;;;;4973927;28;20022;-88
2022/04/13 09:53:16;;;;;;;8.63;2.10;;;19.50;48.60;;;;;;4937944;29;20027;-89
2022/04/13 09:55:48;;;;;;;5.82;1.50;;;19.80;47.90;;;;;;4942938;28;20519;-87
2022/04/13 09:58:16;;;;;;;5.35;1.20;;;20.20;48.50;;;;;;4956579;28;20081;-89
2022/04/13 10:00:45;;;;;;;7.30;1.95;;;20.00;47.10;;;;;;4956531;28;20026;-89
2022/04/13 10:03:11;;;;;;;8.10;1.77;;;19.90;47.50;;;;;;4973966;28;20562;-87
2022/04/13 10:05:41;;;;;;;6.07;1.75;;;19.70;48.40;;;;;;4970229;28;20054;-89
2022/04/13 10:08:08;;;;;;;6.25;2.13;;;19.90;48.00;;;;;;4973207;28;20451;-88
2022/04/13 10:10:35;;;;;;;7.70;2.40;;;20.20;47.40;;;;;;4971654;28;20046;-88
2022/04/13 10:13:01;;;;;;;7.80;1.80;;;20.50;47.50;;;;;;4974528;28;20401;-88
2022/04/13 10:15:27;;;;;;;7.10;1.33;;;20.60;47.90;;;;;;4956955;28;20019;-88
2022/04/13 10:18:00;;;;;;;4.97;1.30;;;20.30;48.20;;;;;;4959534;28;20019;-88
2022/04/13 10:20:47;;;;;;;5.20;1.92;;;20.10;48.30;;;;;;4973345;28;20562;-89
2022/04/13 10:23:13;;;;;;;10.25;1.50;;;20.20;49.30;;;;;;4954490;28;20023;-88
2022/04/13 10:25:40;;;;;;;7.78;1.60;;;20.00;49.30;;;;;;4954741;28;20114;-89
2022/04/13 10:28:51;;;;;;;5.88;1.70;;;20.10;49.90;;;;;;4954485;28;20484;-87
2022/04/13 10:35:38;;;;;;;7.03;2.00;;;20.10;49.20;;;;;;4895406;29;20040;-88
2022/04/13 10:38:04;;;;;;;6.78;1.50;;;19.90;50.10;;;;;;4894272;29;20059;-89
2022/04/13 10:43:58;;;;;;;7.93;1.75;;;20.30;49.80;;;;;;4894816;29;20116;-89
2022/04/13 10:46:32;;;;;;;5.47;1.55;;;20.40;49.90;;;;;;4938058;28;20439;-89
2022/04/13 10:49:31;;;;;;;5.70;1.73;;;20.50;49.80;;;;;;4937624;28;20050;-88
2022/04/13 10:52:45;;;;;;;7.95;2.03;;;21.00;48.70;;;;;;4955350;28;20455;-87
2022/04/13 10:55:33;;;;;;;8.13;1.58;;;21.30;47.80;;;;;;4927784;28;20035;-89
2022/04/13 10:58:43;;;;;;;4.53;1.60;;;21.30;48.30;;;;;;4973890;28;20102;-90
2022/04/13 11:01:38;;;;;;;6.72;1.98;;;21.60;48.20;;;;;;4973884;28;20035;-88
2022/04/13 11:05:12;;;;;;;5.32;1.65;;;22.10;47.20;;;;;;4957014;28;20037;-90
2022/04/13 11:08:40;;;;;;;8.35;1.70;;;21.70;48.60;;;;;;4894110;29;20493;-89
2022/04/13 11:18:35;;;;;;;6.90;1.83;;;21.60;47.50;;;;;;4953018;23;20066;-89
2022/04/13 11:22:00;;;;;;;5.30;1.58;;;21.30;48.90;;;;;;4956177;28;20026;-88
2022/04/13 11:25:09;;;;;;;7.85;1.65;;;21.30;49.70;;;;;;4922959;28;20396;-88
2022/04/13 11:35:56;;;;;;;6.47;1.60;;;21.90;48.80;;;;;;5069670;22;20061;-88
2022/04/13 11:38:56;;;;;;;9.00;1.35;;;21.80;49.10;;;;;;4955002;28;20082;-85
2022/04/13 11:41:23;;;;;;;4.85;1.75;;;21.80;48.20;;;;;;4951831;28;20051;-88
2022/04/13 11:44:25;;;;;;;5.63;2.13;;;21.70;48.70;;;;;;4974030;28;20034;-89
2022/04/13 12:06:36;;;;;;;6.50;1.83;;;22.40;47.90;;;;;;4927627;28;20561;-89
2022/04/13 12:09:03;;;;;;;5.65;1.80;;;22.30;48.10;;;;;;4977044;28;20023;-87
2022/04/13 12:15:00;;;;;;;3.92;1.20;;;22.40;47.60;;;;;;4996269;28;20045;-87
2022/04/13 12:17:29;;;;;;;12.85;2.00;;;22.70;47.60;;;;;;4979725;28;20026;-87
2022/04/13 12:20:27;;;;;;;6.55;1.60;;;22.70;47.00;;;;;;4993106;28;20031;-87
2022/04/13 12:22:53;;;;;;;3.83;1.58;;;22.80;47.50;;;;;;4976347;28;20034;-88
2022/04/13 12:25:19;;;;;;;9.30;1.73;;;23.00;45.90;;;;;;4995160;28;20019;-87
2022/04/13 12:28:04;;;;;;;6.72;1.70;;;23.20;45.30;;;;;;4978543;28;20098;-88
2022/04/13 12:42:34;;;;;;;6.55;1.83;;;23.70;42.90;;;;;;5030433;22;20067;-87
2022/04/13 12:45:00;;;;;;;8.60;1.83;;;23.80;42.80;;;;;;4975752;28;20084;-90
2022/04/13 12:47:26;;;;;;;13.98;1.98;;;23.70;42.80;;;;;;4958412;28;20027;-90
2022/04/13 12:50:01;;;;;;;8.57;1.50;;;23.80;43.10;;;;;;4958840;28;20029;-89
2022/04/13 12:52:28;;;;;;;7.90;1.50;;;23.70;43.00;;;;;;4958945;28;20027;-88
2022/04/13 12:55:01;;;;;;;7.97;1.35;;;23.70;42.00;;;;;;4958592;28;20027;-88
2022/04/13 12:57:50;;;;;;;4.80;1.45;;;23.90;42.30;;;;;;4975981;28;20030;-87
2022/04/13 13:00:47;;;;;;;6.10;1.50;;;24.30;41.40;;;;;;4958375;28;20038;-87
2022/04/13 13:03:56;;;;;;;10.40;2.03;;;24.20;40.90;;;;;;4973699;28;20032;-89
2022/04/13 13:06:29;;;;;;;5.13;1.70;;;24.50;41.30;;;;;;4975173;28;20451;-90
2022/04/13 13:09:22;;;;;;;7.85;1.45;;;24.90;41.10;;;;;;4974284;28;20131;-90
2022/04/13 13:12:02;;;;;;;7.07;1.50;;;25.00;39.70;;;;;;4958348;28;20015;-90
2022/04/13 13:14:54;;;;;;;8.00;1.13;;;24.80;40.40;;;;;;4974653;28;20450;-88
2022/04/13 13:25:17;;;;;;;7.78;2.03;;;25.10;40.20;;;;;;4955125;28;20047;-88
2022/04/13 13:31:23;;;;;;;8.05;1.30;;;25.80;38.80;;;;;;4956066;28;20035;-88
2022/04/13 13:34:26;;;;;;;8.88;1.50;;;26.50;38.70;;;;;;4939260;29;20039;-89
2022/04/13 13:47:55;;;;;;;;;;;;;;;;;;;;;
2022/04/13 13:54:22;;;;;;;5.68;1.40;;;26.00;38.10;;;;;;4975028;28;20451;-91
2022/04/13 13:56:54;;;;;;;9.65;1.40;;;25.60;38.30;;;;;;4899208;29;20032;-88
2022/04/13 13:59:58;;;;;;;8.38;2.72;;;25.30;38.10;;;;;;4948421;28;20027;-88
2022/04/13 14:06:23;;;;;;;12.48;2.03;;;25.70;38.70;;;;;;4974952;28;20058;-87
2022/04/13 14:09:04;;;;;;;6.97;1.20;;;25.40;38.00;;;;;;4975853;28;20035;-88
2022/04/13 14:14:31;;;;;;;5.45;1.38;;;25.10;37.80;;;;;;4968402;28;20050;-88
2022/04/13 14:21:05;;;;;;;8.45;1.40;;;25.40;38.70;;;;;;4914914;29;20068;-88
2022/04/13 14:24:09;;;;;;;7.80;1.23;;;25.80;37.70;;;;;;4845983;29;20034;-86
2022/04/13 14:27:31;;;;;;;8.73;1.73;;;25.80;37.90;;;;;;4924093;29;20067;-86
2022/04/13 14:30:41;;;;;;;7.38;1.45;;;26.00;37.70;;;;;;4918654;29;20031;-86
2022/04/13 14:37:11;;;;;;;10.02;2.00;;;27.20;36.70;;;;;;4918905;29;20510;-87
2022/04/13 14:39:51;;;;;;;11.07;1.60;;;27.30;35.10;;;;;;4925202;29;20118;-86
2022/04/13 14:43:00;;;;;;;9.27;1.27;;;28.00;34.60;;;;;;4938364;29;20086;-86
2022/04/13 14:46:17;;;;;;;9.27;1.80;;;28.30;33.90;;;;;;4931548;29;20342;-85
2022/04/13 14:49:44;;;;;;;11.50;1.60;;;28.10;33.70;;;;;;4934003;29;20031;-86
2022/04/13 14:55:57;;;;;;;14.15;1.77;;;27.90;33.50;;;;;;4945646;28;20047;-85
2022/04/13 14:58:53;;;;;;;;;;;;;;;;;;;;;
2022/04/13 15:01:25;;;;;;;9.43;1.60;;;27.70;34.80;;;;;;4970814;28;20046;-87
2022/04/13 15:04:08;;;;;;;10.38;1.40;;;27.60;34.40;;;;;;4956542;28;20027;-87
2022/04/13 15:06:41;;;;;;;7.82;1.75;;;27.60;34.90;;;;;;4973448;28;20026;-86